PWSweather.com
Personal Weather Stations
Station Observations
UWIDEPER1
Brown County, DePere, WI 54115

Brown CountyDePere, WI 54115

Lat: 44.44, Lon: -88.05

Elevation: 610

Station Type:

www.depereweather.com

High Low Average
Temperature 52.0°F11.1°F 33.4°F0.8°F 41.5°F5.3°F
Dew Point 43.6°F6.4°F 28.0°F-2.2°F 34.9°F1.6°F
Winds 6.8 mph E10.9 mph E Calm Calm 2.3 mph 3.7 mph
Wind Gusts 11.0 mph17.7 mph -- 4.4 mph7.1 mph
Humidity 88% 73% 78%
Pressure 30.44 in1030.80 in 30.30 in1026.10 in -
Precipitation 0.00 in0.00 in - -
Hour Temp Dew Point Humidity Winds Wind Gusts Pressure Precip Precip Rate Daily Precip Total
12:00 AM 37.6°F3.1°C 33.5°F0.8°C 85% 1.6 mph WNW2.6 kmh WNW 3.0 mph4.8 kmh 30.30 in1026.1 mb 0.00 in0.0 mm 0.00 in/hr0.0 mm/hr 0.00 in0.0 mm
12:15 AM 37.2°F2.9°C 34.0°F1.1°C 88% 0.6 mph WNW1.0 kmh WNW 2.0 mph3.2 kmh 30.30 in1026.1 mb 0.00 in0.0 mm 0.00 in/hr0.0 mm/hr 0.00 in0.0 mm
12:30 AM 37.3°F2.9°C 33.8°F1.0°C 87% 3.7 mph NNW6.0 kmh NNW 6.0 mph9.7 kmh 30.32 in1026.8 mb 0.00 in0.0 mm 0.00 in/hr0.0 mm/hr 0.00 in0.0 mm
12:45 AM 37.6°F3.1°C 33.5°F0.8°C 85% 3.9 mph NNW6.3 kmh NNW 6.0 mph9.7 kmh 30.31 in1026.4 mb 0.00 in0.0 mm 0.00 in/hr0.0 mm/hr 0.00 in0.0 mm
01:00 AM 37.6°F3.1°C 33.5°F0.8°C 85% 1.1 mph NW1.8 kmh NW 1.0 mph1.6 kmh 30.30 in1026.1 mb 0.00 in0.0 mm 0.00 in/hr0.0 mm/hr 0.00 in0.0 mm
01:15 AM 37.3°F2.9°C 33.2°F0.7°C 85% 2.8 mph NNW4.5 kmh NNW 5.0 mph8.0 kmh 30.31 in1026.4 mb 0.00 in0.0 mm 0.00 in/hr0.0 mm/hr 0.00 in0.0 mm
01:30 AM 37.3°F2.9°C 33.2°F0.7°C 85% 0.9 mph NW1.4 kmh NW 3.0 mph4.8 kmh 30.31 in1026.4 mb 0.00 in0.0 mm 0.00 in/hr0.0 mm/hr 0.00 in0.0 mm
01:45 AM 37.2°F2.9°C 33.1°F0.6°C 85% 1.4 mph NNW2.3 kmh NNW 2.0 mph3.2 kmh 30.31 in1026.4 mb 0.00 in0.0 mm 0.00 in/hr0.0 mm/hr 0.00 in0.0 mm
02:00 AM 37.0°F2.8°C 32.9°F0.5°C 85% 1.1 mph NNW1.8 kmh NNW 1.0 mph1.6 kmh 30.31 in1026.4 mb 0.00 in0.0 mm 0.00 in/hr0.0 mm/hr 0.00 in0.0 mm
02:15 AM 36.9°F2.7°C 32.5°F0.3°C 84% 1.7 mph NNW2.7 kmh NNW 3.0 mph4.8 kmh 30.31 in1026.4 mb 0.00 in0.0 mm 0.00 in/hr0.0 mm/hr 0.00 in0.0 mm
02:30 AM 36.8°F2.7°C 32.4°F0.2°C 84% 2.0 mph N3.2 kmh N 6.0 mph9.7 kmh 30.31 in1026.4 mb 0.00 in0.0 mm 0.00 in/hr0.0 mm/hr 0.00 in0.0 mm
02:45 AM 36.8°F2.7°C 32.1°F0.1°C 83% 1.3 mph N2.1 kmh N 2.0 mph3.2 kmh 30.32 in1026.8 mb 0.00 in0.0 mm 0.00 in/hr0.0 mm/hr 0.00 in0.0 mm
03:00 AM 37.2°F2.9°C 33.7°F0.9°C 87% 1.3 mph NNW2.1 kmh NNW 2.0 mph3.2 kmh 30.31 in1026.4 mb 0.00 in0.0 mm 0.00 in/hr0.0 mm/hr 0.00 in0.0 mm
03:15 AM 37.2°F2.9°C 32.5°F0.3°C 83% Calm Calm 2.0 mph3.2 kmh 30.31 in1026.4 mb 0.00 in0.0 mm 0.00 in/hr0.0 mm/hr 0.00 in0.0 mm
03:30 AM 36.9°F2.7°C 32.2°F0.1°C 83% 2.2 mph N3.5 kmh N 3.0 mph4.8 kmh 30.32 in1026.8 mb 0.00 in0.0 mm 0.00 in/hr0.0 mm/hr 0.00 in0.0 mm
03:45 AM 36.6°F2.6°C 31.6°F-0.2°C 82% 3.6 mph NNW5.8 kmh NNW 6.0 mph9.7 kmh 30.31 in1026.4 mb 0.00 in0.0 mm 0.00 in/hr0.0 mm/hr 0.00 in0.0 mm
04:00 AM 36.5°F2.5°C 31.5°F-0.3°C 82% 3.5 mph N5.6 kmh N 7.0 mph11.3 kmh 30.32 in1026.8 mb 0.00 in0.0 mm 0.00 in/hr0.0 mm/hr 0.00 in0.0 mm
04:15 AM 36.5°F2.5°C 31.2°F-0.4°C 81% 2.0 mph N3.2 kmh N 7.0 mph11.3 kmh 30.32 in1026.8 mb 0.00 in0.0 mm 0.00 in/hr0.0 mm/hr 0.00 in0.0 mm
04:30 AM 36.3°F2.4°C 31.0°F-0.6°C 81% 1.6 mph N2.6 kmh N 3.0 mph4.8 kmh 30.33 in1027.1 mb 0.00 in0.0 mm 0.00 in/hr0.0 mm/hr 0.00 in0.0 mm
04:45 AM 36.2°F2.3°C 30.6°F-0.8°C 80% 3.7 mph N6.0 kmh N 4.0 mph6.4 kmh 30.33 in1027.1 mb 0.00 in0.0 mm 0.00 in/hr0.0 mm/hr 0.00 in0.0 mm
05:00 AM 36.3°F2.4°C 31.3°F-0.4°C 82% 1.2 mph N1.9 kmh N 3.0 mph4.8 kmh 30.34 in1027.4 mb 0.00 in0.0 mm 0.00 in/hr0.0 mm/hr 0.00 in0.0 mm
05:15 AM 36.2°F2.3°C 30.6°F-0.8°C 80% 4.2 mph N6.8 kmh N 7.0 mph11.3 kmh 30.34 in1027.4 mb 0.00 in0.0 mm 0.00 in/hr0.0 mm/hr 0.00 in0.0 mm
05:30 AM 36.0°F2.2°C 30.4°F-0.9°C 80% 1.4 mph N2.3 kmh N 3.0 mph4.8 kmh 30.35 in1027.8 mb 0.00 in0.0 mm 0.00 in/hr0.0 mm/hr 0.00 in0.0 mm
05:45 AM 35.9°F2.2°C 30.0°F-1.1°C 79% 3.1 mph N5.0 kmh N 6.0 mph9.7 kmh 30.35 in1027.8 mb 0.00 in0.0 mm 0.00 in/hr0.0 mm/hr 0.00 in0.0 mm
06:00 AM 35.8°F2.1°C 29.9°F-1.2°C 79% 2.6 mph N4.2 kmh N 3.0 mph4.8 kmh 30.36 in1028.1 mb 0.00 in0.0 mm 0.00 in/hr0.0 mm/hr 0.00 in0.0 mm
06:15 AM 35.6°F2.0°C 29.7°F-1.3°C 79% 3.4 mph NNW5.5 kmh NNW 5.0 mph8.0 kmh 30.36 in1028.1 mb 0.00 in0.0 mm 0.00 in/hr0.0 mm/hr 0.00 in0.0 mm
06:30 AM 35.6°F2.0°C 29.7°F-1.3°C 79% 2.2 mph NNW3.5 kmh NNW 3.0 mph4.8 kmh 30.37 in1028.4 mb 0.00 in0.0 mm 0.00 in/hr0.0 mm/hr 0.00 in0.0 mm
06:45 AM 35.6°F2.0°C 30.0°F-1.1°C 80% 1.3 mph N2.1 kmh N 5.0 mph8.0 kmh 30.37 in1028.4 mb 0.00 in0.0 mm 0.00 in/hr0.0 mm/hr 0.00 in0.0 mm
07:00 AM 35.8°F2.1°C 29.9°F-1.2°C 79% 0.3 mph N0.5 kmh N 1.0 mph1.6 kmh 30.37 in1028.4 mb 0.00 in0.0 mm 0.00 in/hr0.0 mm/hr 0.00 in0.0 mm
07:15 AM 36.0°F2.2°C 31.0°F-0.6°C 82% 0.1 mph N0.2 kmh N 3.0 mph4.8 kmh 30.38 in1028.8 mb 0.00 in0.0 mm 0.00 in/hr0.0 mm/hr 0.00 in0.0 mm
07:30 AM 36.6°F2.6°C 30.7°F-0.7°C 79% 0.2 mph N0.3 kmh N 4.0 mph6.4 kmh 30.39 in1029.1 mb 0.00 in0.0 mm 0.00 in/hr0.0 mm/hr 0.00 in0.0 mm
07:45 AM 36.3°F2.4°C 30.4°F-0.9°C 79% 1.4 mph NW2.3 kmh NW 6.0 mph9.7 kmh 30.39 in1029.1 mb 0.00 in0.0 mm 0.00 in/hr0.0 mm/hr 0.00 in0.0 mm
08:00 AM 36.5°F2.5°C 30.3°F-0.9°C 78% 5.6 mph NW9.0 kmh NW 7.0 mph11.3 kmh 30.39 in1029.1 mb 0.00 in0.0 mm 0.00 in/hr0.0 mm/hr 0.00 in0.0 mm
08:15 AM 36.8°F2.7°C 30.6°F-0.8°C 78% 0.3 mph NW0.5 kmh NW 3.0 mph4.8 kmh 30.39 in1029.1 mb 0.00 in0.0 mm 0.00 in/hr0.0 mm/hr 0.00 in0.0 mm
08:30 AM 37.3°F2.9°C 30.7°F-0.7°C 77% 6.2 mph N10.0 kmh N 7.0 mph11.3 kmh 30.39 in1029.1 mb 0.00 in0.0 mm 0.00 in/hr0.0 mm/hr 0.00 in0.0 mm
08:45 AM 37.5°F3.1°C 31.0°F-0.6°C 77% 0.4 mph NNW0.6 kmh NNW 5.0 mph8.0 kmh 30.39 in1029.1 mb 0.00 in0.0 mm 0.00 in/hr0.0 mm/hr 0.00 in0.0 mm
09:00 AM 38.3°F3.5°C 31.7°F-0.2°C 77% 2.3 mph NNW3.7 kmh NNW 4.0 mph6.4 kmh 30.40 in1029.5 mb 0.00 in0.0 mm 0.00 in/hr0.0 mm/hr 0.00 in0.0 mm
09:15 AM 39.8°F4.3°C 32.5°F0.3°C 75% 4.0 mph NE6.4 kmh NE 7.0 mph11.3 kmh 30.41 in1029.8 mb 0.00 in0.0 mm 0.00 in/hr0.0 mm/hr 0.00 in0.0 mm
09:30 AM 41.5°F5.3°C 33.9°F1.1°C 74% 4.1 mph NNW6.6 kmh NNW 9.0 mph14.5 kmh 30.40 in1029.5 mb 0.00 in0.0 mm 0.00 in/hr0.0 mm/hr 0.00 in0.0 mm
09:45 AM 42.7°F5.9°C 34.7°F1.5°C 73% 4.7 mph NE7.6 kmh NE 6.0 mph9.7 kmh 30.40 in1029.5 mb 0.00 in0.0 mm 0.00 in/hr0.0 mm/hr 0.00 in0.0 mm
10:00 AM 42.8°F6.0°C 34.7°F1.5°C 73% 1.3 mph NW2.1 kmh NW 4.0 mph6.4 kmh 30.40 in1029.5 mb 0.00 in0.0 mm 0.00 in/hr0.0 mm/hr 0.00 in0.0 mm
10:15 AM 42.2°F5.7°C 34.5°F1.4°C 74% 3.0 mph NNW4.8 kmh NNW 4.0 mph6.4 kmh 30.41 in1029.8 mb 0.00 in0.0 mm 0.00 in/hr0.0 mm/hr 0.00 in0.0 mm
10:30 AM 41.8°F5.4°C 34.1°F1.2°C 74% 4.0 mph NW6.4 kmh NW 7.0 mph11.3 kmh 30.41 in1029.8 mb 0.00 in0.0 mm 0.00 in/hr0.0 mm/hr 0.00 in0.0 mm
10:45 AM 43.1°F6.2°C 35.4°F1.9°C 74% 3.8 mph NNW6.1 kmh NNW 7.0 mph11.3 kmh 30.41 in1029.8 mb 0.00 in0.0 mm 0.00 in/hr0.0 mm/hr 0.00 in0.0 mm
11:00 AM 45.7°F7.6°C 37.6°F3.1°C 73% Calm Calm -- 30.40 in1029.5 mb 0.00 in0.0 mm 0.00 in/hr0.0 mm/hr 0.00 in0.0 mm
11:15 AM 46.8°F8.2°C 38.6°F3.7°C 73% 0.6 mph W1.0 kmh W 5.0 mph8.0 kmh 30.41 in1029.8 mb 0.00 in0.0 mm 0.00 in/hr0.0 mm/hr 0.00 in0.0 mm
11:30 AM 47.7°F8.7°C 39.5°F4.2°C 73% 4.3 mph NW6.9 kmh NW 6.0 mph9.7 kmh 30.40 in1029.5 mb 0.00 in0.0 mm 0.00 in/hr0.0 mm/hr 0.00 in0.0 mm
11:45 AM 48.6°F9.2°C 40.3°F4.6°C 73% 1.9 mph NW3.1 kmh NW 5.0 mph8.0 kmh 30.40 in1029.5 mb 0.00 in0.0 mm 0.00 in/hr0.0 mm/hr 0.00 in0.0 mm
12:00 PM 49.4°F9.7°C 41.1°F5.1°C 73% 2.9 mph N4.7 kmh N 4.0 mph6.4 kmh 30.40 in1029.5 mb 0.00 in0.0 mm 0.00 in/hr0.0 mm/hr 0.00 in0.0 mm
12:15 PM 49.2°F9.6°C 40.9°F4.9°C 73% 4.8 mph WNW7.7 kmh WNW 7.0 mph11.3 kmh 30.40 in1029.5 mb 0.00 in0.0 mm 0.00 in/hr0.0 mm/hr 0.00 in0.0 mm
12:30 PM 50.0°F10.0°C 41.7°F5.4°C 73% 3.1 mph N5.0 kmh N 6.0 mph9.7 kmh 30.39 in1029.1 mb 0.00 in0.0 mm 0.00 in/hr0.0 mm/hr 0.00 in0.0 mm
12:45 PM 50.4°F10.2°C 42.1°F5.6°C 73% 0.9 mph N1.4 kmh N 5.0 mph8.0 kmh 30.39 in1029.1 mb 0.00 in0.0 mm 0.00 in/hr0.0 mm/hr 0.00 in0.0 mm
01:00 PM 50.7°F10.4°C 42.4°F5.8°C 73% 2.7 mph NE4.3 kmh NE 5.0 mph8.0 kmh 30.39 in1029.1 mb 0.00 in0.0 mm 0.00 in/hr0.0 mm/hr 0.00 in0.0 mm
01:15 PM 50.5°F10.3°C 42.2°F5.7°C 73% 1.9 mph ENE3.1 kmh ENE 4.0 mph6.4 kmh 30.40 in1029.5 mb 0.00 in0.0 mm 0.00 in/hr0.0 mm/hr 0.00 in0.0 mm
01:30 PM 48.9°F9.4°C 40.6°F4.8°C 73% 1.1 mph E1.8 kmh E 2.0 mph3.2 kmh 30.40 in1029.5 mb 0.00 in0.0 mm 0.00 in/hr0.0 mm/hr 0.00 in0.0 mm
01:45 PM 49.3°F9.6°C 41.0°F5.0°C 73% 2.1 mph E3.4 kmh E 3.0 mph4.8 kmh 30.39 in1029.1 mb 0.00 in0.0 mm 0.00 in/hr0.0 mm/hr 0.00 in0.0 mm
02:00 PM 50.5°F10.3°C 42.2°F5.7°C 73% 0.9 mph NE1.4 kmh NE 1.0 mph1.6 kmh 30.39 in1029.1 mb 0.00 in0.0 mm 0.00 in/hr0.0 mm/hr 0.00 in0.0 mm
02:15 PM 51.7°F10.9°C 43.3°F6.3°C 73% 3.3 mph NE5.3 kmh NE 6.0 mph9.7 kmh 30.39 in1029.1 mb 0.00 in0.0 mm 0.00 in/hr0.0 mm/hr 0.00 in0.0 mm
02:30 PM 52.0°F11.1°C 43.6°F6.4°C 73% 0.5 mph NW0.8 kmh NW 4.0 mph6.4 kmh 30.39 in1029.1 mb 0.00 in0.0 mm 0.00 in/hr0.0 mm/hr 0.00 in0.0 mm
02:45 PM 51.1°F10.6°C 42.7°F5.9°C 73% 4.0 mph N6.4 kmh N 7.0 mph11.3 kmh 30.39 in1029.1 mb 0.00 in0.0 mm 0.00 in/hr0.0 mm/hr 0.00 in0.0 mm
03:00 PM 51.3°F10.7°C 42.9°F6.1°C 73% 1.7 mph NNW2.7 kmh NNW 2.0 mph3.2 kmh 30.38 in1028.8 mb 0.00 in0.0 mm 0.00 in/hr0.0 mm/hr 0.00 in0.0 mm
03:15 PM 51.3°F10.7°C 42.9°F6.1°C 73% 2.8 mph NW4.5 kmh NW 6.0 mph9.7 kmh 30.39 in1029.1 mb 0.00 in0.0 mm 0.00 in/hr0.0 mm/hr 0.00 in0.0 mm
03:30 PM 51.1°F10.6°C 42.7°F5.9°C 73% 2.1 mph WSW3.4 kmh WSW 5.0 mph8.0 kmh 30.38 in1028.8 mb 0.00 in0.0 mm 0.00 in/hr0.0 mm/hr 0.00 in0.0 mm
03:45 PM 50.0°F10.0°C 41.7°F5.4°C 73% 3.3 mph E5.3 kmh E 4.0 mph6.4 kmh 30.38 in1028.8 mb 0.00 in0.0 mm 0.00 in/hr0.0 mm/hr 0.00 in0.0 mm
04:00 PM 49.2°F9.6°C 40.9°F4.9°C 73% 0.8 mph SE1.3 kmh SE 4.0 mph6.4 kmh 30.38 in1028.8 mb 0.00 in0.0 mm 0.00 in/hr0.0 mm/hr 0.00 in0.0 mm
04:15 PM 49.8°F9.9°C 41.5°F5.3°C 73% 0.2 mph WNW0.3 kmh WNW 5.0 mph8.0 kmh 30.37 in1028.4 mb 0.00 in0.0 mm 0.00 in/hr0.0 mm/hr 0.00 in0.0 mm
04:30 PM 50.4°F10.2°C 42.1°F5.6°C 73% 2.3 mph E3.7 kmh E 6.0 mph9.7 kmh 30.38 in1028.8 mb 0.00 in0.0 mm 0.00 in/hr0.0 mm/hr 0.00 in0.0 mm
04:45 PM 50.5°F10.3°C 42.2°F5.7°C 73% 2.6 mph NE4.2 kmh NE 6.0 mph9.7 kmh 30.37 in1028.4 mb 0.00 in0.0 mm 0.00 in/hr0.0 mm/hr 0.00 in0.0 mm
05:00 PM 50.5°F10.3°C 42.2°F5.7°C 73% 3.2 mph E5.1 kmh E 4.0 mph6.4 kmh 30.38 in1028.8 mb 0.00 in0.0 mm 0.00 in/hr0.0 mm/hr 0.00 in0.0 mm
05:15 PM 50.1°F10.1°C 41.8°F5.4°C 73% 1.6 mph E2.6 kmh E 3.0 mph4.8 kmh 30.38 in1028.8 mb 0.00 in0.0 mm 0.00 in/hr0.0 mm/hr 0.00 in0.0 mm
05:30 PM 49.6°F9.8°C 41.3°F5.2°C 73% 3.0 mph N4.8 kmh N 6.0 mph9.7 kmh 30.38 in1028.8 mb 0.00 in0.0 mm 0.00 in/hr0.0 mm/hr 0.00 in0.0 mm
05:45 PM 49.4°F9.7°C 41.1°F5.1°C 73% 1.8 mph ENE2.9 kmh ENE 3.0 mph4.8 kmh 30.38 in1028.8 mb 0.00 in0.0 mm 0.00 in/hr0.0 mm/hr 0.00 in0.0 mm
06:00 PM 48.9°F9.4°C 40.6°F4.8°C 73% 5.1 mph NE8.2 kmh NE 7.0 mph11.3 kmh 30.39 in1029.1 mb 0.00 in0.0 mm 0.00 in/hr0.0 mm/hr 0.00 in0.0 mm
06:15 PM 48.6°F9.2°C 40.3°F4.6°C 73% 2.5 mph E4.0 kmh E 5.0 mph8.0 kmh 30.39 in1029.1 mb 0.00 in0.0 mm 0.00 in/hr0.0 mm/hr 0.00 in0.0 mm
06:30 PM 46.8°F8.2°C 38.6°F3.7°C 73% 6.8 mph E10.9 kmh E 11.0 mph17.7 kmh 30.40 in1029.5 mb 0.00 in0.0 mm 0.00 in/hr0.0 mm/hr 0.00 in0.0 mm
06:45 PM 45.4°F7.4°C 37.6°F3.1°C 74% 2.7 mph E4.3 kmh E 6.0 mph9.7 kmh 30.41 in1029.8 mb 0.00 in0.0 mm 0.00 in/hr0.0 mm/hr 0.00 in0.0 mm
07:00 PM 44.6°F7.0°C 36.5°F2.5°C 73% 4.3 mph ESE6.9 kmh ESE 8.0 mph12.9 kmh 30.41 in1029.8 mb 0.00 in0.0 mm 0.00 in/hr0.0 mm/hr 0.00 in0.0 mm
07:15 PM 43.5°F6.4°C 36.1°F2.3°C 75% 3.6 mph E5.8 kmh E 8.0 mph12.9 kmh 30.41 in1029.8 mb 0.00 in0.0 mm 0.00 in/hr0.0 mm/hr 0.00 in0.0 mm
07:30 PM 42.0°F5.6°C 35.0°F1.7°C 76% 4.4 mph ESE7.1 kmh ESE 6.0 mph9.7 kmh 30.41 in1029.8 mb 0.00 in0.0 mm 0.00 in/hr0.0 mm/hr 0.00 in0.0 mm
07:45 PM 40.6°F4.8°C 34.0°F1.1°C 77% 2.0 mph ESE3.2 kmh ESE 3.0 mph4.8 kmh 30.41 in1029.8 mb 0.00 in0.0 mm 0.00 in/hr0.0 mm/hr 0.00 in0.0 mm
08:00 PM 39.9°F4.4°C 33.6°F0.9°C 78% 1.2 mph E1.9 kmh E 2.0 mph3.2 kmh 30.41 in1029.8 mb 0.00 in0.0 mm 0.00 in/hr0.0 mm/hr 0.00 in0.0 mm
08:15 PM 39.2°F4.0°C 33.2°F0.7°C 79% 0.5 mph SE0.8 kmh SE 2.0 mph3.2 kmh 30.42 in1030.1 mb 0.00 in0.0 mm 0.00 in/hr0.0 mm/hr 0.00 in0.0 mm
08:30 PM 38.6°F3.7°C 32.6°F0.3°C 79% 2.4 mph E3.9 kmh E 5.0 mph8.0 kmh 30.43 in1030.5 mb 0.00 in0.0 mm 0.00 in/hr0.0 mm/hr 0.00 in0.0 mm
08:45 PM 38.0°F3.3°C 32.1°F0.1°C 79% 2.9 mph E4.7 kmh E 5.0 mph8.0 kmh 30.43 in1030.5 mb 0.00 in0.0 mm 0.00 in/hr0.0 mm/hr 0.00 in0.0 mm
09:00 PM 37.2°F2.9°C 31.3°F-0.4°C 79% 2.3 mph E3.7 kmh E 3.0 mph4.8 kmh 30.43 in1030.5 mb 0.00 in0.0 mm 0.00 in/hr0.0 mm/hr 0.00 in0.0 mm
09:15 PM 36.8°F2.7°C 30.9°F-0.6°C 79% 3.3 mph E5.3 kmh E 3.0 mph4.8 kmh 30.43 in1030.5 mb 0.00 in0.0 mm 0.00 in/hr0.0 mm/hr 0.00 in0.0 mm
09:30 PM 36.2°F2.3°C 30.3°F-0.9°C 79% 3.5 mph ESE5.6 kmh ESE 6.0 mph9.7 kmh 30.43 in1030.5 mb 0.00 in0.0 mm 0.00 in/hr0.0 mm/hr 0.00 in0.0 mm
09:45 PM 35.8°F2.1°C 29.9°F-1.2°C 79% 0.8 mph ESE1.3 kmh ESE 5.0 mph8.0 kmh 30.43 in1030.5 mb 0.00 in0.0 mm 0.00 in/hr0.0 mm/hr 0.00 in0.0 mm
10:00 PM 35.2°F1.8°C 29.4°F-1.4°C 79% 2.2 mph E3.5 kmh E 3.0 mph4.8 kmh 30.43 in1030.5 mb 0.00 in0.0 mm 0.00 in/hr0.0 mm/hr 0.00 in0.0 mm
10:15 PM 35.0°F1.7°C 28.8°F-1.8°C 78% 2.5 mph E4.0 kmh E 3.0 mph4.8 kmh 30.44 in1030.8 mb 0.00 in0.0 mm 0.00 in/hr0.0 mm/hr 0.00 in0.0 mm
10:30 PM 34.7°F1.5°C 28.9°F-1.7°C 79% Calm Calm -- 30.44 in1030.8 mb 0.00 in0.0 mm 0.00 in/hr0.0 mm/hr 0.00 in0.0 mm
10:45 PM 34.3°F1.3°C 28.5°F-1.9°C 79% 0.9 mph E1.4 kmh E 2.0 mph3.2 kmh 30.44 in1030.8 mb 0.00 in0.0 mm 0.00 in/hr0.0 mm/hr 0.00 in0.0 mm
11:00 PM 33.8°F1.0°C 28.0°F-2.2°C 79% 1.7 mph E2.7 kmh E 6.0 mph9.7 kmh 30.43 in1030.5 mb 0.00 in0.0 mm 0.00 in/hr0.0 mm/hr 0.00 in0.0 mm
11:15 PM 33.8°F1.0°C 28.3°F-2.1°C 80% 0.9 mph E1.4 kmh E 3.0 mph4.8 kmh 30.43 in1030.5 mb 0.00 in0.0 mm 0.00 in/hr0.0 mm/hr 0.00 in0.0 mm
11:30 PM 33.5°F0.8°C 28.0°F-2.2°C 80% 0.6 mph E1.0 kmh E 1.0 mph1.6 kmh 30.43 in1030.5 mb 0.00 in0.0 mm 0.00 in/hr0.0 mm/hr 0.00 in0.0 mm
11:45 PM 33.4°F0.8°C 28.2°F-2.1°C 81% 0.3 mph ESE0.5 kmh ESE 1.0 mph1.6 kmh 30.44 in1030.8 mb 0.00 in0.0 mm 0.00 in/hr0.0 mm/hr 0.00 in0.0 mm